createdAt,value
2018-10-16T00:01:53.268Z,96.90
2018-10-16T00:04:21.441Z,97.40
2018-10-16T00:06:49.597Z,97.70
2018-10-16T00:09:17.738Z,97.80
2018-10-16T00:11:57.113Z,98.00
2018-10-16T00:14:25.294Z,97.90
2018-10-16T00:16:53.477Z,98.00
2018-10-16T00:19:21.589Z,98.10
2018-10-16T00:21:49.825Z,98.00
2018-10-16T00:24:17.956Z,98.20
2018-10-16T00:26:46.108Z,98.20
2018-10-16T00:29:14.267Z,98.30
2018-10-16T00:31:42.445Z,98.70
2018-10-16T00:34:10.629Z,98.50
2018-10-16T00:36:39.077Z,98.60
2018-10-16T00:39:10.909Z,98.70
2018-10-16T00:41:39.712Z,98.80
2018-10-16T00:44:08.767Z,98.80
2018-10-16T00:46:37.193Z,98.80
2018-10-16T00:49:05.389Z,99.00
2018-10-16T00:51:33.590Z,98.80
2018-10-16T00:54:01.744Z,98.50
2018-10-16T00:56:29.932Z,98.60
2018-10-16T00:58:58.084Z,98.50
2018-10-16T01:01:31.949Z,98.70
2018-10-16T01:04:02.748Z,98.80
2018-10-16T01:06:31.515Z,98.60
2018-10-16T01:08:59.722Z,98.60
2018-10-16T01:11:27.885Z,99.00
2018-10-16T01:13:57.184Z,99.10
2018-10-16T01:16:25.466Z,99.10
2018-10-16T01:18:53.608Z,99.10
2018-10-16T01:21:22.185Z,99.00
2018-10-16T01:23:50.319Z,98.80
2018-10-16T01:26:18.485Z,98.70
2018-10-16T01:28:46.747Z,98.70
2018-10-16T01:31:14.892Z,98.80
2018-10-16T01:33:43.052Z,99.00
2018-10-16T01:36:11.813Z,99.10
2018-10-16T01:38:40.021Z,99.00
2018-10-16T01:41:09.351Z,99.30
2018-10-16T01:43:37.740Z,99.30
2018-10-16T01:46:05.898Z,99.40
2018-10-16T01:48:34.072Z,99.40
2018-10-16T01:51:02.220Z,99.20
2018-10-16T01:53:30.392Z,99.10
2018-10-16T01:55:58.590Z,99.10
2018-10-16T01:58:26.906Z,99.30
2018-10-16T02:00:55.117Z,99.00
2018-10-16T02:03:23.280Z,98.80
2018-10-16T02:05:51.441Z,99.00
2018-10-16T02:08:19.619Z,99.20
2018-10-16T02:10:47.789Z,99.10
2018-10-16T02:13:15.932Z,99.30
2018-10-16T02:15:44.092Z,99.20
2018-10-16T02:18:12.273Z,99.40
2018-10-16T02:20:40.465Z,99.50
2018-10-16T02:23:08.627Z,99.60
2018-10-16T02:25:36.800Z,99.70
2018-10-16T02:28:05.045Z,99.70
2018-10-16T02:30:33.229Z,99.90
2018-10-16T02:33:01.449Z,99.40
2018-10-16T02:35:29.711Z,99.40
2018-10-16T02:37:57.885Z,99.40
2018-10-16T02:40:26.061Z,99.70
2018-10-16T02:42:54.214Z,99.60
2018-10-16T02:45:22.347Z,99.70
2018-10-16T02:47:50.559Z,99.80
2018-10-16T02:50:18.716Z,99.90
2018-10-16T02:52:46.904Z,99.90
2018-10-16T02:55:15.053Z,99.90
2018-10-16T02:57:43.295Z,99.70
2018-10-16T03:00:11.509Z,99.80
2018-10-16T03:02:39.654Z,99.70
2018-10-16T03:05:07.870Z,99.60
2018-10-16T03:07:36.064Z,99.50
2018-10-16T03:10:04.270Z,99.70
2018-10-16T03:12:32.451Z,99.50
2018-10-16T03:15:00.626Z,99.50
2018-10-16T03:17:28.777Z,99.60
2018-10-16T03:19:56.949Z,99.30
2018-10-16T03:22:25.098Z,99.10
2018-10-16T03:24:53.240Z,99.10
2018-10-16T03:27:21.417Z,99.00
2018-10-16T03:29:49.556Z,99.00
2018-10-16T03:32:17.730Z,99.00
2018-10-16T03:34:45.901Z,98.80
2018-10-16T03:37:14.088Z,99.10
2018-10-16T03:39:42.253Z,99.30
2018-10-16T03:42:10.474Z,99.30
2018-10-16T03:44:38.609Z,99.70
2018-10-16T03:47:06.766Z,99.70
2018-10-16T03:49:34.920Z,99.50
2018-10-16T03:52:03.111Z,99.60
2018-10-16T03:54:31.272Z,99.70
2018-10-16T03:56:59.465Z,99.70
2018-10-16T03:59:27.629Z,99.70
2018-10-16T04:01:55.812Z,99.70
2018-10-16T04:04:23.977Z,99.60
2018-10-16T04:06:52.258Z,99.70
2018-10-16T04:09:20.404Z,99.40
2018-10-16T04:11:48.587Z,99.40
2018-10-16T04:14:16.792Z,99.40
2018-10-16T04:16:44.944Z,99.40
2018-10-16T04:19:13.153Z,99.10
2018-10-16T04:21:45.328Z,99.00
2018-10-16T04:24:13.744Z,99.00
2018-10-16T04:26:42.105Z,98.80
2018-10-16T04:29:11.665Z,98.80
2018-10-16T04:31:39.818Z,98.60
2018-10-16T04:34:08.683Z,98.60
2018-10-16T04:36:36.833Z,98.30
2018-10-16T04:39:08.484Z,98.00
2018-10-16T04:41:36.728Z,98.20
2018-10-16T04:44:05.048Z,98.10
2018-10-16T04:46:33.222Z,97.70
2018-10-16T04:49:01.387Z,97.50
2018-10-16T04:51:29.537Z,97.30
2018-10-16T04:53:57.688Z,97.20
2018-10-16T04:56:25.865Z,96.90
2018-10-16T04:58:54.041Z,96.50
2018-10-16T05:01:22.214Z,96.40
2018-10-16T05:03:50.416Z,96.50
2018-10-16T05:06:18.634Z,96.30
2018-10-16T05:08:46.801Z,96.10
2018-10-16T05:11:15.030Z,96.10
2018-10-16T05:13:43.244Z,95.90
2018-10-16T05:16:11.512Z,95.60
2018-10-16T05:18:39.763Z,95.70
2018-10-16T05:21:08.109Z,95.80
2018-10-16T05:23:36.303Z,96.10
2018-10-16T05:26:04.517Z,96.00
2018-10-16T05:28:32.650Z,96.10
2018-10-16T05:31:00.856Z,96.30
2018-10-16T05:33:28.997Z,96.10
2018-10-16T05:35:57.331Z,95.90
2018-10-16T05:38:25.542Z,95.70
2018-10-16T05:40:53.749Z,95.40
2018-10-16T05:43:21.985Z,95.00
2018-10-16T05:45:50.165Z,95.00
2018-10-16T05:48:18.321Z,95.20
2018-10-16T05:50:46.501Z,94.90
2018-10-16T05:53:14.681Z,94.80
2018-10-16T05:55:42.845Z,94.30
2018-10-16T05:58:11.115Z,94.30
2018-10-16T06:00:47.509Z,94.30
2018-10-16T06:03:15.664Z,94.40
2018-10-16T06:05:43.890Z,94.80
2018-10-16T06:08:12.105Z,94.90
2018-10-16T06:10:40.357Z,94.80
2018-10-16T06:13:08.467Z,94.90
2018-10-16T06:15:36.626Z,95.10
2018-10-16T06:18:04.922Z,95.20
2018-10-16T06:20:33.151Z,95.20
2018-10-16T06:23:01.510Z,94.70
2018-10-16T06:25:29.746Z,95.00
2018-10-16T06:27:57.973Z,94.90
2018-10-16T06:30:26.401Z,94.90
2018-10-16T06:32:54.408Z,95.20
2018-10-16T06:35:22.590Z,95.00
2018-10-16T06:37:50.744Z,94.90
2018-10-16T06:40:18.977Z,95.00
2018-10-16T06:42:47.174Z,95.00
2018-10-16T06:45:15.331Z,95.10
2018-10-16T06:47:43.548Z,94.60
2018-10-16T06:50:11.712Z,94.70
2018-10-16T06:52:39.915Z,94.40
2018-10-16T06:55:08.231Z,94.40
2018-10-16T06:57:36.291Z,93.90
2018-10-16T07:00:05.362Z,93.80
2018-10-16T07:02:33.492Z,93.00
2018-10-16T07:05:01.714Z,93.30
2018-10-16T07:07:29.882Z,92.60
2018-10-16T07:09:58.105Z,92.20
2018-10-16T07:12:26.233Z,92.30
2018-10-16T07:14:54.527Z,91.80
2018-10-16T07:17:22.653Z,91.80
2018-10-16T07:19:50.862Z,91.40
2018-10-16T07:22:19.077Z,91.00
2018-10-16T07:24:47.324Z,90.80
2018-10-16T07:27:15.531Z,90.50
2018-10-16T07:29:43.759Z,90.20
2018-10-16T07:32:11.971Z,90.00
2018-10-16T07:34:40.153Z,90.00
2018-10-16T07:37:08.350Z,89.40
2018-10-16T07:39:36.524Z,89.60
2018-10-16T07:42:04.715Z,88.70
2018-10-16T07:44:32.992Z,87.40
2018-10-16T07:47:01.151Z,86.60
2018-10-16T07:49:29.356Z,85.00
2018-10-16T07:51:57.532Z,84.80
2018-10-16T07:54:25.749Z,83.80
2018-10-16T07:56:53.940Z,83.00
2018-10-16T07:59:22.202Z,82.10
2018-10-16T08:01:50.477Z,80.10
2018-10-16T08:04:18.699Z,79.20
2018-10-16T08:06:46.869Z,78.60
2018-10-16T08:09:16.199Z,77.20
2018-10-16T08:11:45.186Z,76.30
2018-10-16T08:14:14.249Z,74.10
2018-10-16T08:16:42.789Z,72.50
2018-10-16T08:19:11.864Z,71.80
2018-10-16T08:21:40.092Z,69.80
2018-10-16T08:24:08.648Z,69.10
2018-10-16T08:26:36.850Z,67.30
2018-10-16T08:29:05.615Z,67.80
2018-10-16T08:31:33.789Z,68.30
2018-10-16T08:34:02.010Z,67.70
2018-10-16T08:36:30.824Z,67.40
2018-10-16T08:39:04.508Z,67.20
2018-10-16T08:41:35.921Z,66.60
2018-10-16T08:44:18.165Z,66.90
2018-10-16T08:46:57.693Z,65.50
2018-10-16T08:49:37.369Z,65.90
2018-10-16T08:52:05.616Z,64.40
2018-10-16T08:54:33.810Z,65.10
2018-10-16T08:57:02.005Z,64.10
2018-10-16T08:59:30.173Z,63.00
2018-10-16T09:01:58.337Z,62.80
2018-10-16T09:04:26.508Z,63.00
2018-10-16T09:06:54.775Z,62.10
2018-10-16T09:09:22.900Z,60.60
2018-10-16T09:11:51.065Z,61.70
2018-10-16T09:14:19.308Z,60.80
2018-10-16T09:16:47.513Z,61.60
2018-10-16T09:19:15.738Z,61.10
2018-10-16T09:21:44.070Z,60.10
2018-10-16T09:24:12.270Z,59.70
2018-10-16T09:26:40.447Z,59.50
2018-10-16T09:29:08.604Z,59.10
2018-10-16T09:31:36.803Z,57.60
2018-10-16T09:34:04.966Z,57.40
2018-10-16T09:36:33.132Z,56.10
2018-10-16T09:39:01.287Z,54.70
2018-10-16T09:41:29.452Z,54.00
2018-10-16T09:43:57.605Z,53.60
2018-10-16T09:46:25.786Z,53.60
2018-10-16T09:48:53.953Z,52.50
2018-10-16T09:51:22.122Z,51.50
2018-10-16T09:53:50.274Z,50.20
2018-10-16T09:56:18.529Z,49.60
2018-10-16T09:58:46.735Z,49.80
2018-10-16T10:01:20.328Z,48.60
2018-10-16T10:03:48.774Z,47.30
2018-10-16T10:06:17.049Z,47.70
2018-10-16T10:08:45.237Z,48.10
2018-10-16T10:11:13.513Z,47.40
2018-10-16T10:13:41.629Z,45.60
2018-10-16T10:16:09.803Z,45.20
2018-10-16T10:18:38.021Z,43.80
2018-10-16T10:21:06.270Z,44.00
2018-10-16T10:23:34.438Z,44.60
2018-10-16T10:26:02.739Z,42.90
2018-10-16T10:28:30.882Z,43.20
2018-10-16T10:30:59.037Z,42.70
2018-10-16T10:33:27.233Z,42.80
2018-10-16T10:35:55.427Z,42.30
2018-10-16T10:38:23.632Z,42.50
2018-10-16T10:40:51.830Z,41.70
2018-10-16T10:43:20.000Z,41.10
2018-10-16T10:45:48.188Z,41.60
2018-10-16T10:48:16.390Z,41.70
2018-10-16T10:50:44.855Z,40.80
2018-10-16T10:53:12.885Z,40.30
2018-10-16T10:55:41.064Z,39.50
2018-10-16T10:58:09.274Z,39.10
2018-10-16T11:00:37.438Z,39.00
2018-10-16T11:03:05.739Z,38.20
2018-10-16T11:05:34.691Z,36.70
2018-10-16T11:08:03.059Z,36.70
2018-10-16T11:10:31.313Z,35.50
2018-10-16T11:12:59.492Z,35.00
2018-10-16T11:15:27.679Z,35.40
2018-10-16T11:17:55.840Z,34.50
2018-10-16T11:20:23.987Z,35.10
2018-10-16T11:22:52.176Z,33.80
2018-10-16T11:25:20.467Z,33.50
2018-10-16T11:27:48.652Z,33.30
2018-10-16T11:30:16.900Z,33.40
2018-10-16T11:32:45.042Z,33.50
2018-10-16T11:35:14.425Z,33.00
2018-10-16T11:37:42.839Z,31.80
2018-10-16T11:40:11.354Z,31.30
2018-10-16T11:42:39.929Z,30.90
2018-10-16T11:45:08.124Z,30.50
2018-10-16T11:47:36.648Z,30.90
2018-10-16T11:50:05.564Z,31.10
2018-10-16T11:52:33.645Z,30.90
2018-10-16T11:55:01.852Z,29.70
2018-10-16T11:57:30.017Z,29.10
2018-10-16T11:59:58.170Z,29.30
2018-10-16T12:02:26.417Z,29.30
2018-10-16T12:04:54.539Z,28.60
2018-10-16T12:07:22.739Z,27.60
2018-10-16T12:09:51.065Z,27.40
2018-10-16T12:12:19.229Z,26.90
2018-10-16T12:14:47.405Z,26.90
2018-10-16T12:17:56.101Z,25.90
2018-10-16T12:20:33.704Z,26.10
2018-10-16T12:23:01.874Z,26.10
2018-10-16T12:25:30.061Z,26.10
2018-10-16T12:27:58.224Z,24.70
2018-10-16T12:30:26.375Z,24.70
2018-10-16T12:32:54.656Z,24.90
2018-10-16T12:35:23.745Z,25.10
2018-10-16T12:37:51.975Z,23.40
2018-10-16T12:40:20.272Z,24.40
2018-10-16T12:42:48.482Z,24.40
2018-10-16T12:45:16.619Z,22.60
2018-10-16T12:47:44.945Z,22.40
2018-10-16T12:50:13.200Z,21.80
2018-10-16T12:52:41.337Z,20.30
2018-10-16T12:55:09.664Z,20.80
2018-10-16T12:57:37.884Z,20.80
2018-10-16T13:00:06.393Z,19.40
2018-10-16T13:02:34.482Z,20.30
2018-10-16T13:05:02.722Z,20.30
2018-10-16T13:07:35.587Z,20.40
2018-10-16T13:10:04.917Z,20.00
2018-10-16T13:12:33.129Z,20.30
2018-10-16T13:15:01.342Z,20.10
2018-10-16T13:17:29.508Z,19.10
2018-10-16T13:19:57.756Z,20.20
2018-10-16T13:22:25.916Z,20.10
2018-10-16T13:24:54.099Z,20.40
2018-10-16T13:27:22.281Z,20.40
2018-10-16T13:29:50.457Z,20.40
2018-10-16T13:32:18.625Z,21.10
2018-10-16T13:34:46.880Z,20.60
2018-10-16T13:37:15.039Z,20.60
2018-10-16T13:39:43.229Z,21.00
2018-10-16T13:42:11.442Z,20.70
2018-10-16T13:44:39.643Z,20.40
2018-10-16T13:47:07.816Z,19.90
2018-10-16T13:49:36.005Z,19.80
2018-10-16T13:52:04.269Z,22.00
2018-10-16T13:54:32.413Z,20.60
2018-10-16T13:57:00.758Z,20.40
2018-10-16T13:59:28.852Z,20.10
2018-10-16T14:01:57.078Z,20.70
2018-10-16T14:04:25.222Z,20.90
2018-10-16T14:06:53.409Z,20.50
2018-10-16T14:09:21.596Z,21.40
2018-10-16T14:11:49.967Z,21.90
2018-10-16T14:14:18.293Z,21.90
2018-10-16T14:16:46.445Z,21.90
2018-10-16T14:19:14.639Z,22.00
2018-10-16T14:21:42.864Z,22.40
2018-10-16T14:24:11.041Z,22.20
2018-10-16T14:26:39.363Z,21.90
2018-10-16T14:29:07.472Z,22.40
2018-10-16T14:31:35.684Z,22.10
2018-10-16T14:34:03.868Z,23.20
2018-10-16T14:36:32.168Z,22.90
2018-10-16T14:39:00.424Z,22.70
2018-10-16T14:41:28.551Z,22.60
2018-10-16T14:43:56.768Z,23.00
2018-10-16T14:46:24.941Z,23.30
2018-10-16T14:48:53.141Z,23.20
2018-10-16T14:51:21.297Z,23.00
2018-10-16T14:53:49.590Z,23.80
2018-10-16T14:56:17.769Z,23.50
2018-10-16T14:58:45.960Z,24.10
2018-10-16T15:01:14.118Z,24.00
2018-10-16T15:03:42.314Z,24.20
2018-10-16T15:06:10.480Z,24.60
2018-10-16T15:08:38.817Z,24.60
2018-10-16T15:11:07.078Z,24.70
2018-10-16T15:13:35.231Z,24.30
2018-10-16T15:16:03.561Z,24.20
2018-10-16T15:18:31.669Z,23.60
2018-10-16T15:20:59.864Z,23.70
2018-10-16T15:23:28.095Z,23.80
2018-10-16T15:25:56.389Z,24.60
2018-10-16T15:28:24.605Z,23.80
2018-10-16T15:30:52.864Z,25.00
2018-10-16T15:33:21.000Z,24.20
2018-10-16T15:35:49.297Z,24.30
2018-10-16T15:38:17.398Z,25.30
2018-10-16T15:40:45.563Z,25.40
2018-10-16T15:43:13.682Z,25.40
2018-10-16T15:45:41.848Z,25.10
2018-10-16T15:48:10.015Z,25.30
2018-10-16T15:50:38.169Z,25.30
2018-10-16T15:53:06.406Z,25.60
2018-10-16T15:55:34.636Z,26.30
2018-10-16T15:58:02.818Z,26.90
2018-10-16T16:00:30.937Z,26.80
2018-10-16T16:02:59.167Z,27.20
2018-10-16T16:05:27.405Z,26.60
2018-10-16T16:07:55.587Z,27.80
2018-10-16T16:10:23.750Z,27.10
2018-10-16T16:12:51.913Z,28.40
2018-10-16T16:15:20.089Z,28.70
2018-10-16T16:17:48.317Z,28.60
2018-10-16T16:20:16.633Z,29.10
2018-10-16T16:22:44.992Z,29.70
2018-10-16T16:25:14.224Z,30.30
2018-10-16T16:27:42.379Z,32.30
2018-10-16T16:30:12.522Z,32.10
2018-10-16T16:32:40.670Z,32.00
2018-10-16T16:35:08.969Z,32.30
2018-10-16T16:37:37.113Z,32.90
2018-10-16T16:40:07.216Z,33.30
2018-10-16T16:42:35.284Z,34.60
2018-10-16T16:45:03.563Z,35.40
2018-10-16T16:47:31.717Z,36.10
2018-10-16T16:49:59.942Z,37.00
2018-10-16T16:52:28.100Z,37.80
2018-10-16T16:54:56.315Z,37.50
2018-10-16T16:57:24.487Z,38.30
2018-10-16T16:59:52.676Z,38.50
2018-10-16T17:02:20.863Z,38.70
2018-10-16T17:04:49.028Z,39.00
2018-10-16T17:07:17.216Z,39.20
2018-10-16T17:09:45.337Z,38.60
2018-10-16T17:12:13.484Z,39.30
2018-10-16T17:14:41.645Z,40.00
2018-10-16T17:17:09.793Z,40.70
2018-10-16T17:19:37.983Z,41.40
2018-10-16T17:22:06.283Z,43.20
2018-10-16T17:24:34.465Z,43.40
2018-10-16T17:27:02.634Z,44.20
2018-10-16T17:29:30.776Z,45.00
2018-10-16T17:31:59.003Z,45.40
2018-10-16T17:34:27.168Z,46.30
2018-10-16T17:36:55.383Z,47.50
2018-10-16T17:39:23.548Z,48.20
2018-10-16T17:41:51.713Z,49.50
2018-10-16T17:44:19.894Z,50.10
2018-10-16T17:46:48.155Z,52.00
2018-10-16T17:49:16.342Z,52.50
2018-10-16T17:51:44.580Z,53.80
2018-10-16T17:54:12.853Z,53.70
2018-10-16T17:56:41.025Z,55.30
2018-10-16T17:59:09.204Z,56.40
2018-10-16T18:01:37.481Z,57.50
2018-10-16T18:04:05.928Z,58.20
2018-10-16T18:06:34.130Z,58.50
2018-10-16T18:09:02.383Z,59.30
2018-10-16T18:11:30.649Z,60.40
2018-10-16T18:13:59.019Z,60.90
2018-10-16T18:16:27.374Z,61.60
2018-10-16T18:18:55.586Z,60.50
2018-10-16T18:21:23.885Z,58.10
2018-10-16T18:23:52.157Z,55.80
2018-10-16T18:26:20.347Z,54.50
2018-10-16T18:28:48.712Z,55.70
2018-10-16T18:31:16.913Z,54.40
2018-10-16T18:33:45.232Z,54.50
2018-10-16T18:36:13.477Z,54.20
2018-10-16T18:38:41.752Z,55.20
2018-10-16T18:41:09.976Z,54.50
2018-10-16T18:43:38.114Z,57.30
2018-10-16T18:46:06.403Z,56.30
2018-10-16T18:48:34.605Z,56.40
2018-10-16T18:51:02.861Z,56.60
2018-10-16T18:53:30.972Z,57.80
2018-10-16T18:55:59.381Z,58.50
2018-10-16T18:58:27.677Z,59.80
2018-10-16T19:00:56.435Z,61.10
2018-10-16T19:03:24.674Z,60.40
2018-10-16T19:05:52.853Z,59.40
2018-10-16T19:08:21.105Z,58.80
2018-10-16T19:10:49.285Z,58.60
2018-10-16T19:13:17.539Z,59.00
2018-10-16T19:15:45.980Z,59.40
2018-10-16T19:18:14.143Z,59.60
2018-10-16T19:20:42.317Z,60.10
2018-10-16T19:23:10.509Z,60.80
2018-10-16T19:25:38.665Z,62.70
2018-10-16T19:28:06.864Z,62.00
2018-10-16T19:30:35.017Z,62.00
2018-10-16T19:33:03.265Z,61.40
2018-10-16T19:35:31.451Z,61.70
2018-10-16T19:37:59.688Z,61.60
2018-10-16T19:40:27.830Z,61.30
2018-10-16T19:42:55.984Z,61.40
2018-10-16T19:45:24.310Z,62.20
2018-10-16T19:47:52.491Z,62.20
2018-10-16T19:50:20.721Z,62.20
2018-10-16T19:52:48.897Z,62.70
2018-10-16T19:55:17.100Z,62.70
2018-10-16T19:57:45.217Z,63.40
2018-10-16T20:00:13.402Z,64.00
2018-10-16T20:02:41.553Z,64.70
2018-10-16T20:05:09.983Z,65.20
2018-10-16T20:07:38.227Z,64.80
2018-10-16T20:10:07.561Z,64.80
2018-10-16T20:12:35.724Z,65.70
2018-10-16T20:15:04.437Z,65.10
2018-10-16T20:17:32.605Z,66.40
2018-10-16T20:20:00.785Z,65.80
2018-10-16T20:22:28.944Z,65.10
2018-10-16T20:24:57.218Z,65.30
2018-10-16T20:27:25.307Z,65.70
2018-10-16T20:29:53.480Z,65.60
2018-10-16T20:32:21.666Z,65.80
2018-10-16T20:34:49.816Z,65.90
2018-10-16T20:37:18.063Z,66.70
2018-10-16T20:39:46.236Z,67.60
2018-10-16T20:42:14.422Z,68.10
2018-10-16T20:44:42.610Z,68.80
2018-10-16T20:47:10.777Z,68.80
2018-10-16T20:49:38.936Z,69.80
2018-10-16T20:52:07.113Z,70.30
2018-10-16T20:54:35.288Z,71.00
2018-10-16T20:57:03.453Z,72.20
2018-10-16T20:59:31.617Z,72.90
2018-10-16T21:01:59.791Z,73.70
2018-10-16T21:04:28.022Z,74.50
2018-10-16T21:06:56.244Z,76.00
2018-10-16T21:09:24.289Z,77.40
2018-10-16T21:11:52.426Z,78.50
2018-10-16T21:14:20.572Z,76.70
2018-10-16T21:16:48.733Z,76.60
2018-10-16T21:19:16.931Z,77.40
2018-10-16T21:21:45.052Z,78.40
2018-10-16T21:24:13.220Z,79.40
2018-10-16T21:26:41.349Z,80.10
2018-10-16T21:29:09.621Z,80.40
2018-10-16T21:31:37.696Z,81.10
2018-10-16T21:34:05.964Z,81.30
2018-10-16T21:36:34.127Z,82.10
2018-10-16T21:39:02.312Z,82.10
2018-10-16T21:41:30.432Z,82.10
2018-10-16T21:43:58.560Z,81.50
2018-10-16T21:46:26.693Z,81.00
2018-10-16T21:48:54.884Z,81.20
2018-10-16T21:51:23.000Z,82.30
2018-10-16T21:53:51.133Z,83.60
2018-10-16T21:56:19.326Z,84.80
2018-10-16T21:58:47.474Z,85.00
2018-10-16T22:01:15.675Z,84.90
2018-10-16T22:06:20.737Z,85.60
2018-10-16T22:08:48.892Z,86.10
2018-10-16T22:11:17.154Z,86.10
2018-10-16T22:13:45.192Z,86.90
2018-10-16T22:16:13.362Z,87.00
2018-10-16T22:18:42.060Z,87.20
2018-10-16T22:21:10.231Z,87.00
2018-10-16T22:23:38.393Z,87.60
2018-10-16T22:26:06.560Z,88.10
2018-10-16T22:28:34.755Z,88.50
2018-10-16T22:31:02.945Z,89.00
2018-10-16T22:33:31.089Z,89.60
2018-10-16T22:35:59.418Z,90.00
2018-10-16T22:38:27.620Z,90.10
2018-10-16T22:40:55.820Z,90.30
2018-10-16T22:43:23.967Z,90.60
2018-10-16T22:45:52.134Z,90.90
2018-10-16T22:48:20.292Z,91.30
2018-10-16T22:50:49.316Z,91.70
2018-10-16T22:53:17.528Z,91.70
2018-10-16T22:55:45.665Z,91.70
2018-10-16T22:58:13.848Z,91.50
2018-10-16T23:00:42.073Z,90.90
2018-10-16T23:03:10.328Z,90.10
2018-10-16T23:05:38.501Z,89.90
2018-10-16T23:08:06.646Z,90.00
2018-10-16T23:10:34.824Z,90.20
2018-10-16T23:13:06.701Z,90.50
2018-10-16T23:15:35.166Z,91.30
2018-10-16T23:18:03.949Z,92.20
2018-10-16T23:20:32.593Z,92.40
2018-10-16T23:23:00.772Z,93.00
2018-10-16T23:25:28.988Z,93.30
2018-10-16T23:27:57.160Z,93.80
2018-10-16T23:30:25.423Z,94.40
2018-10-16T23:32:53.604Z,95.20
2018-10-16T23:35:21.808Z,95.20
2018-10-16T23:37:49.961Z,95.20
2018-10-16T23:40:18.170Z,95.20
2018-10-16T23:42:46.312Z,95.20
2018-10-16T23:45:15.034Z,95.60
2018-10-16T23:47:43.258Z,95.80
2018-10-16T23:50:11.429Z,96.10
2018-10-16T23:52:39.619Z,96.60
2018-10-16T23:55:08.987Z,96.50
2018-10-16T23:57:37.101Z,96.60
